createdAt,value
2019-04-22T00:00:37.269Z,74.10
2019-04-22T00:03:07.458Z,73.90
2019-04-22T00:05:56.247Z,73.40
2019-04-22T00:08:34.221Z,73.50
2019-04-22T00:10:54.189Z,73.00
2019-04-22T00:13:32.395Z,73.50
2019-04-22T00:15:53.884Z,73.20
2019-04-22T00:18:40.591Z,74.30
2019-04-22T00:20:59.381Z,74.40
2019-04-22T00:23:27.774Z,74.70
2019-04-22T00:25:57.334Z,74.70
2019-04-22T00:28:23.253Z,73.80
2019-04-22T00:30:53.773Z,74.80
2019-04-22T00:33:26.538Z,74.80
2019-04-22T00:35:54.762Z,74.50
2019-04-22T00:38:24.017Z,73.70
2019-04-22T00:40:56.311Z,73.50
2019-04-22T00:43:24.325Z,74.90
2019-04-22T00:45:47.925Z,75.10
2019-04-22T00:48:30.860Z,76.00
2019-04-22T00:56:35.716Z,78.20
2019-04-22T00:58:50.585Z,78.30
2019-04-22T01:01:18.868Z,79.00
2019-04-22T01:03:58.389Z,78.20
2019-04-22T01:06:20.370Z,76.90
2019-04-22T01:08:53.003Z,76.90
2019-04-22T01:11:25.118Z,77.20
2019-04-22T01:13:44.277Z,77.00
2019-04-22T01:16:17.750Z,76.40
2019-04-22T01:18:55.430Z,76.50
2019-04-22T01:21:28.846Z,77.10
2019-04-22T01:23:52.248Z,78.20
2019-04-22T01:26:24.240Z,78.70
2019-04-22T01:28:50.032Z,79.60
2019-04-22T01:31:15.992Z,78.30
2019-04-22T01:33:45.783Z,78.30
2019-04-22T01:36:30.214Z,78.20
2019-04-22T01:39:04.659Z,78.60
2019-04-22T01:41:42.307Z,77.30
2019-04-22T01:44:08.317Z,77.50
2019-04-22T01:46:32.126Z,76.80
2019-04-22T01:49:06.428Z,77.10
2019-04-22T01:51:42.242Z,78.00
2019-04-22T01:54:03.869Z,77.50
2019-04-22T01:56:27.325Z,77.60
2019-04-22T01:58:52.147Z,77.70
2019-04-22T02:01:35.768Z,78.20
2019-04-22T02:03:59.034Z,77.80
2019-04-22T02:06:31.416Z,78.00
2019-04-22T02:11:29.287Z,78.90
2019-04-22T02:13:52.209Z,78.20
2019-04-22T02:16:21.387Z,77.60
2019-04-22T02:18:53.322Z,77.00
2019-04-22T02:21:16.620Z,77.90
2019-04-22T02:31:25.961Z,79.40
2019-04-22T02:36:22.989Z,79.80
2019-04-22T02:51:16.514Z,80.70
2019-04-22T02:56:27.224Z,81.90
2019-04-22T02:58:58.363Z,82.00
2019-04-22T03:03:51.851Z,80.10
2019-04-22T03:06:23.961Z,80.10
2019-04-22T03:08:43.359Z,81.40
2019-04-22T03:11:15.190Z,81.90
2019-04-22T03:13:46.973Z,80.80
2019-04-22T03:18:55.057Z,80.90
2019-04-22T03:21:06.892Z,80.30
2019-04-22T03:23:45.598Z,80.20
2019-04-22T03:26:16.523Z,79.90
2019-04-22T03:28:44.279Z,79.90
2019-04-22T03:32:16.479Z,80.30
2019-04-22T03:34:55.364Z,80.30
2019-04-22T03:37:09.466Z,81.20
2019-04-22T03:41:48.220Z,80.60
2019-04-22T03:46:30.486Z,80.60
2019-04-22T03:49:11.971Z,80.60
2019-04-22T03:57:08.027Z,81.40
2019-04-22T03:59:09.618Z,81.20
2019-04-22T04:01:37.037Z,82.10
2019-04-22T04:06:32.779Z,81.80
2019-04-22T04:11:38.412Z,80.20
2019-04-22T04:14:05.319Z,80.60
2019-04-22T04:16:19.574Z,80.40
2019-04-22T04:19:05.076Z,81.30
2019-04-22T04:24:01.278Z,80.60
2019-04-22T04:26:33.526Z,80.60
2019-04-22T04:29:17.389Z,81.50
2019-04-22T04:31:27.350Z,82.60
2019-04-22T04:34:03.313Z,82.00
2019-04-22T04:36:27.019Z,82.50
2019-04-22T04:41:17.229Z,82.80
2019-04-22T04:44:01.466Z,84.10
2019-04-22T04:46:14.205Z,83.80
2019-04-22T04:51:18.033Z,83.20
2019-04-22T04:53:41.780Z,83.40
2019-04-22T04:56:11.758Z,83.80
2019-04-22T04:58:56.360Z,83.90
2019-04-22T05:01:14.952Z,84.10
2019-04-22T05:03:55.323Z,84.80
2019-04-22T05:06:10.657Z,85.10
2019-04-22T05:08:54.618Z,85.50
2019-04-22T05:13:39.621Z,85.60
2019-04-22T05:16:17.176Z,85.70
2019-04-22T05:18:29.365Z,85.40
2019-04-22T05:23:32.074Z,84.90
2019-04-22T05:26:02.589Z,85.10
2019-04-22T05:28:24.422Z,85.90
2019-04-22T05:30:46.074Z,86.00
2019-04-22T05:33:21.654Z,85.90
2019-04-22T05:35:47.568Z,84.90
2019-04-22T05:40:47.985Z,83.80
2019-04-22T05:43:13.968Z,83.80
2019-04-22T05:45:42.999Z,82.90
2019-04-22T05:48:14.929Z,80.70
2019-04-22T05:50:45.390Z,81.10
2019-04-22T05:53:07.065Z,80.10
2019-04-22T05:55:51.860Z,77.40
2019-04-22T05:58:08.354Z,71.80
2019-04-22T06:01:13.000Z,71.10
2019-04-22T06:03:15.298Z,69.60
2019-04-22T06:05:41.650Z,68.20
2019-04-22T06:08:10.612Z,67.70
2019-04-22T06:10:50.421Z,69.20
2019-04-22T06:13:06.567Z,68.20
2019-04-22T06:15:37.638Z,66.90
2019-04-22T06:18:16.267Z,66.40
2019-04-22T06:20:57.568Z,66.00
2019-04-22T06:23:19.051Z,66.20
2019-04-22T06:25:59.064Z,64.80
2019-04-22T06:28:26.289Z,66.00
2019-04-22T06:30:54.669Z,66.50
2019-04-22T06:33:14.933Z,64.80
2019-04-22T06:35:51.998Z,65.90
2019-04-22T06:40:46.536Z,63.80
2019-04-22T06:43:15.891Z,62.60
2019-04-22T06:45:41.414Z,63.30
2019-04-22T06:48:12.557Z,62.50
2019-04-22T06:50:41.724Z,60.70
2019-04-22T06:53:14.515Z,60.80
2019-04-22T06:55:44.271Z,60.80
2019-04-22T06:58:07.641Z,58.90
2019-04-22T07:00:38.129Z,59.20
2019-04-22T07:05:32.823Z,54.50
2019-04-22T07:08:16.474Z,52.20
2019-04-22T07:13:01.172Z,50.90
2019-04-22T07:15:46.535Z,50.40
2019-04-22T07:18:04.869Z,52.50
2019-04-22T07:23:06.827Z,52.50
2019-04-22T07:25:29.172Z,54.50
2019-04-22T07:27:58.187Z,53.50
2019-04-22T07:33:14.789Z,52.80
2019-04-22T07:37:57.105Z,53.10
2019-04-22T07:40:34.562Z,53.90
2019-04-22T07:42:59.194Z,54.40
2019-04-22T07:45:42.531Z,54.60
2019-04-22T07:48:02.740Z,55.70
2019-04-22T07:50:37.719Z,54.90
2019-04-22T07:52:52.057Z,55.10
2019-04-22T07:55:25.579Z,54.40
2019-04-22T07:57:56.507Z,54.10
2019-04-22T08:00:23.047Z,53.60
2019-04-22T08:02:54.306Z,52.70
2019-04-22T08:05:22.310Z,53.10
2019-04-22T08:07:54.170Z,52.70
2019-04-22T08:10:28.293Z,52.40
2019-04-22T08:12:45.791Z,52.00
2019-04-22T08:15:13.081Z,50.40
2019-04-22T08:20:15.612Z,52.00
2019-04-22T08:22:46.064Z,52.30
2019-04-22T08:25:10.429Z,50.60
2019-04-22T08:27:46.883Z,51.80
2019-04-22T08:30:31.360Z,51.30
2019-04-22T08:32:41.375Z,51.30
2019-04-22T08:35:12.991Z,51.20
2019-04-22T08:37:47.532Z,50.40
2019-04-22T08:40:12.590Z,49.00
2019-04-22T08:42:53.102Z,49.20
2019-04-22T08:47:36.295Z,50.30
2019-04-22T08:50:07.754Z,51.30
2019-04-22T08:52:33.791Z,50.60
2019-04-22T08:55:07.775Z,49.10
2019-04-22T09:00:02.766Z,49.70
2019-04-22T09:02:34.574Z,49.80
2019-04-22T09:05:01.521Z,50.00
2019-04-22T09:09:56.944Z,49.90
2019-04-22T09:12:34.636Z,49.30
2019-04-22T09:14:53.662Z,50.30
2019-04-22T09:17:41.430Z,49.70
2019-04-22T09:19:55.937Z,49.40
2019-04-22T09:22:21.851Z,49.20
2019-04-22T09:24:55.220Z,49.30
2019-04-22T09:27:25.153Z,49.40
2019-04-22T09:29:53.724Z,49.00
2019-04-22T09:32:24.873Z,48.90
2019-04-22T09:34:47.277Z,49.10
2019-04-22T09:39:51.978Z,48.80
2019-04-22T09:42:18.746Z,49.00
2019-04-22T09:44:47.513Z,49.00
2019-04-22T09:47:13.107Z,49.40
2019-04-22T09:49:51.886Z,48.30
2019-04-22T09:52:30.835Z,47.70
2019-04-22T09:57:15.795Z,48.80
2019-04-22T09:59:43.715Z,49.00
2019-04-22T10:04:40.225Z,48.70
2019-04-22T10:07:10.081Z,48.60
2019-04-22T10:09:56.499Z,49.10
2019-04-22T10:12:10.164Z,50.60
2019-04-22T10:14:38.333Z,49.70
2019-04-22T10:17:17.785Z,49.30
2019-04-22T10:19:38.746Z,49.00
2019-04-22T10:22:05.648Z,48.20
2019-04-22T10:24:36.868Z,48.20
2019-04-22T10:27:01.578Z,48.10
2019-04-22T10:29:39.079Z,48.40
2019-04-22T10:32:02.163Z,47.00
2019-04-22T10:34:19.164Z,47.30
2019-04-22T10:36:33.352Z,46.70
2019-04-22T10:39:00.676Z,45.80
2019-04-22T10:41:28.511Z,46.10
2019-04-22T10:43:57.049Z,46.40
2019-04-22T10:46:24.540Z,46.80
2019-04-22T10:48:52.776Z,47.40
2019-04-22T10:51:20.193Z,47.20
2019-04-22T10:53:47.428Z,46.50
2019-04-22T10:56:14.927Z,46.50
2019-04-22T10:58:42.613Z,45.60
2019-04-22T11:01:11.420Z,46.30
2019-04-22T11:03:39.508Z,46.60
2019-04-22T11:06:07.446Z,45.80
2019-04-22T11:08:43.293Z,46.00
2019-04-22T11:11:18.982Z,45.10
2019-04-22T11:13:33.866Z,45.60
2019-04-22T11:16:01.060Z,45.20
2019-04-22T11:18:29.471Z,43.80
2019-04-22T11:20:57.816Z,44.90
2019-04-22T11:23:26.910Z,44.90
2019-04-22T11:25:54.440Z,44.00
2019-04-22T11:28:21.989Z,44.80
2019-04-22T11:30:50.581Z,45.00
2019-04-22T11:33:18.396Z,45.30
2019-04-22T11:35:46.047Z,44.50
2019-04-22T11:38:14.904Z,44.40
2019-04-22T11:40:49.601Z,44.50
2019-04-22T11:43:12.399Z,44.00
2019-04-22T11:45:41.463Z,43.10
2019-04-22T11:48:09.189Z,44.60
2019-04-22T11:50:37.685Z,44.70
2019-04-22T11:53:05.153Z,45.10
2019-04-22T11:55:32.888Z,44.50
2019-04-22T11:58:01.059Z,44.10
2019-04-22T12:00:32.775Z,44.40
2019-04-22T12:03:00.828Z,43.40
2019-04-22T12:05:30.015Z,44.40
2019-04-22T12:07:57.449Z,44.20
2019-04-22T12:10:32.811Z,42.90
2019-04-22T12:12:55.552Z,42.20
2019-04-22T12:15:24.654Z,43.60
2019-04-22T12:17:53.084Z,43.80
2019-04-22T12:20:21.680Z,44.10
2019-04-22T12:22:51.293Z,43.20
2019-04-22T12:25:31.874Z,43.40
2019-04-22T12:27:50.743Z,44.50
2019-04-22T12:30:19.616Z,44.60
2019-04-22T12:32:48.558Z,44.00
2019-04-22T12:35:17.647Z,44.60
2019-04-22T12:37:52.871Z,44.40
2019-04-22T12:40:29.426Z,43.50
2019-04-22T12:42:47.188Z,43.90
2019-04-22T12:45:16.254Z,43.80
2019-04-22T12:47:44.129Z,43.30
2019-04-22T12:50:20.496Z,42.70
2019-04-22T12:52:51.000Z,41.60
2019-04-22T12:55:11.999Z,41.70
2019-04-22T12:57:40.740Z,41.90
2019-04-22T13:00:09.578Z,43.10
2019-04-22T13:02:36.897Z,43.40
2019-04-22T13:05:05.835Z,43.60
2019-04-22T13:07:33.639Z,42.70
2019-04-22T13:10:01.474Z,43.60
2019-04-22T13:12:29.107Z,43.30
2019-04-22T13:14:57.198Z,43.50
2019-04-22T13:17:25.001Z,44.20
2019-04-22T13:19:52.439Z,44.50
2019-04-22T13:22:20.992Z,44.90
2019-04-22T13:24:49.913Z,44.30
2019-04-22T13:27:17.283Z,44.00
2019-04-22T13:29:46.608Z,43.60
2019-04-22T13:32:13.769Z,42.20
2019-04-22T13:34:46.502Z,42.70
2019-04-22T13:37:10.767Z,41.30
2019-04-22T13:39:38.949Z,42.30
2019-04-22T13:42:11.888Z,42.20
2019-04-22T13:44:35.669Z,42.00
2019-04-22T13:47:15.331Z,42.50
2019-04-22T13:52:40.212Z,43.30
2019-04-22T13:54:53.330Z,43.30
2019-04-22T13:57:22.996Z,43.30
2019-04-22T13:59:36.867Z,44.30
2019-04-22T14:02:26.361Z,46.00
2019-04-22T14:04:54.887Z,46.10
2019-04-22T14:07:23.072Z,47.20
2019-04-22T14:09:50.675Z,48.20
2019-04-22T14:12:19.766Z,48.30
2019-04-22T14:14:49.051Z,48.60
2019-04-22T14:17:16.767Z,47.70
2019-04-22T14:19:44.760Z,47.40
2019-04-22T14:22:13.676Z,46.60
2019-04-22T14:24:42.674Z,46.50
2019-04-22T14:27:20.753Z,46.50
2019-04-22T14:29:39.824Z,46.80
2019-04-22T14:32:14.609Z,47.20
2019-04-22T14:34:36.463Z,47.50
2019-04-22T14:37:03.900Z,48.00
2019-04-22T14:39:31.105Z,48.70
2019-04-22T14:42:19.618Z,48.80
2019-04-22T14:47:20.081Z,48.20
2019-04-22T14:49:49.626Z,48.20
2019-04-22T14:52:23.069Z,48.60
2019-04-22T14:54:37.610Z,48.10
2019-04-22T14:56:54.222Z,48.20
2019-04-22T14:59:22.903Z,49.00
2019-04-22T15:01:51.615Z,48.40
2019-04-22T15:04:19.386Z,48.00
2019-04-22T15:06:48.919Z,48.30
2019-04-22T15:09:16.232Z,48.30
2019-04-22T15:11:57.032Z,48.10
2019-04-22T15:14:13.098Z,48.50
2019-04-22T15:16:53.192Z,48.60
2019-04-22T15:19:45.789Z,49.00
2019-04-22T15:22:13.307Z,48.40
2019-04-22T15:24:42.629Z,48.50
2019-04-22T15:27:10.675Z,48.30
2019-04-22T15:29:39.051Z,48.10
2019-04-22T15:32:07.568Z,48.30
2019-04-22T15:34:34.948Z,48.70
2019-04-22T15:37:04.283Z,48.60
2019-04-22T15:39:31.634Z,49.00
2019-04-22T15:42:09.753Z,48.40
2019-04-22T15:44:28.107Z,48.70
2019-04-22T15:46:55.360Z,48.60
2019-04-22T15:49:24.317Z,49.00
2019-04-22T15:51:53.255Z,48.90
2019-04-22T15:54:21.485Z,48.90
2019-04-22T15:56:48.928Z,48.90
2019-04-22T15:59:34.884Z,49.50
2019-04-22T16:01:46.782Z,49.10
2019-04-22T16:04:14.856Z,48.60
2019-04-22T16:06:43.132Z,49.00
2019-04-22T16:09:11.199Z,49.20
2019-04-22T16:11:40.375Z,49.40
2019-04-22T16:14:08.679Z,49.10
2019-04-22T16:16:37.118Z,49.20
2019-04-22T16:19:04.991Z,49.20
2019-04-22T16:21:40.444Z,49.40
2019-04-22T16:24:15.997Z,49.40
2019-04-22T16:26:53.871Z,49.80
2019-04-22T16:29:21.362Z,49.50
2019-04-22T16:31:49.580Z,49.50
2019-04-22T16:34:17.396Z,49.20
2019-04-22T16:36:44.958Z,49.00
2019-04-22T16:39:13.246Z,49.30
2019-04-22T16:41:40.668Z,49.80
2019-04-22T16:44:08.947Z,49.90
2019-04-22T16:46:37.449Z,50.10
2019-04-22T16:49:05.740Z,50.70
2019-04-22T16:51:33.867Z,50.70
2019-04-22T16:54:02.176Z,50.90
2019-04-22T16:56:32.207Z,50.90
2019-04-22T16:58:59.006Z,51.20
2019-04-22T17:02:01.161Z,51.40
2019-04-22T17:04:44.591Z,52.20
2019-04-22T17:07:13.970Z,52.40
2019-04-22T17:09:43.909Z,52.40
2019-04-22T17:12:12.020Z,53.00
2019-04-22T17:14:47.538Z,53.10
2019-04-22T17:17:10.463Z,53.30
2019-04-22T17:19:39.500Z,53.40
2019-04-22T17:22:07.894Z,53.50
2019-04-22T17:24:35.527Z,53.80
2019-04-22T17:27:04.315Z,54.10
2019-04-22T17:29:32.409Z,53.90
2019-04-22T17:32:06.430Z,54.10
2019-04-22T17:34:29.621Z,54.20
2019-04-22T17:36:57.355Z,54.20
2019-04-22T17:39:40.414Z,54.40
2019-04-22T17:42:18.675Z,54.70
2019-04-22T17:44:48.419Z,55.20
2019-04-22T17:47:23.604Z,55.80
2019-04-22T17:50:09.545Z,56.70
2019-04-22T17:52:30.368Z,57.10
2019-04-22T17:55:00.932Z,57.50
2019-04-22T17:57:31.299Z,57.80
2019-04-22T17:59:55.300Z,58.20
2019-04-22T18:02:25.052Z,58.30
2019-04-22T18:04:46.859Z,58.40
2019-04-22T18:10:23.780Z,58.50
2019-04-22T18:17:30.533Z,58.50
2019-04-22T18:19:53.164Z,58.60
2019-04-22T18:22:21.630Z,58.50
2019-04-22T18:24:52.965Z,58.90
2019-04-22T18:27:43.478Z,59.60
2019-04-22T18:29:51.518Z,59.50
2019-04-22T18:32:17.702Z,59.70
2019-04-22T18:34:50.406Z,60.20
2019-04-22T18:37:23.700Z,60.30
2019-04-22T18:40:02.188Z,60.20
2019-04-22T18:42:26.958Z,60.30
2019-04-22T18:45:23.275Z,61.00
2019-04-22T18:47:35.502Z,61.20
2019-04-22T18:50:03.328Z,61.40
2019-04-22T18:52:58.969Z,61.70
2019-04-22T18:55:33.767Z,61.60
2019-04-22T18:58:08.959Z,61.80
2019-04-22T19:00:29.207Z,62.20
2019-04-22T19:03:03.868Z,62.70
2019-04-22T19:05:45.351Z,62.70
2019-04-22T19:08:23.269Z,62.90
2019-04-22T19:11:00.554Z,62.70
2019-04-22T19:16:09.830Z,63.60
2019-04-22T19:18:29.833Z,63.70
2019-04-22T19:23:28.125Z,63.80
2019-04-22T19:25:52.340Z,63.50
2019-04-22T19:28:35.451Z,64.50
2019-04-22T19:31:05.928Z,65.00
2019-04-22T19:33:31.573Z,65.20
2019-04-22T19:36:01.540Z,65.20
2019-04-22T19:38:19.172Z,65.00
2019-04-22T19:41:11.649Z,65.50
2019-04-22T19:43:29.194Z,65.60
2019-04-22T19:45:54.632Z,65.60
2019-04-22T19:48:32.904Z,65.80
2019-04-22T19:51:04.287Z,65.80
2019-04-22T19:53:29.478Z,66.20
2019-04-22T19:55:49.851Z,66.30
2019-04-22T19:58:22.573Z,66.70
2019-04-22T20:01:16.153Z,66.70
2019-04-22T20:04:13.610Z,66.40
2019-04-22T20:06:38.091Z,66.30
2019-04-22T20:09:05.782Z,66.10
2019-04-22T20:11:37.611Z,66.10
2019-04-22T20:14:06.315Z,66.00
2019-04-22T20:16:33.500Z,65.40
2019-04-22T20:19:06.856Z,65.70
2019-04-22T20:21:38.651Z,66.00
2019-04-22T20:23:53.722Z,65.90
2019-04-22T20:26:24.114Z,65.90
2019-04-22T20:28:58.997Z,65.80
2019-04-22T20:31:28.970Z,65.40
2019-04-22T20:34:02.913Z,65.70
2019-04-22T20:36:44.697Z,65.50
2019-04-22T20:38:56.676Z,65.20
2019-04-22T20:41:23.081Z,65.40
2019-04-22T20:43:56.606Z,65.60
2019-04-22T20:46:23.824Z,65.40
2019-04-22T20:48:58.495Z,65.90
2019-04-22T20:51:24.419Z,66.60
2019-04-22T20:53:57.931Z,67.00
2019-04-22T20:56:18.776Z,67.40
2019-04-22T20:58:54.010Z,68.10
2019-04-22T21:01:22.462Z,68.50
2019-04-22T21:03:41.985Z,68.80
2019-04-22T21:06:16.411Z,68.80
2019-04-22T21:08:47.330Z,68.90
2019-04-22T21:11:15.316Z,68.80
2019-04-22T21:13:42.652Z,68.60
2019-04-22T21:16:21.606Z,68.20
2019-04-22T21:18:43.785Z,68.80
2019-04-22T21:21:13.478Z,69.00
2019-04-22T21:23:38.351Z,69.10
2019-04-22T21:26:17.791Z,69.00
2019-04-22T21:28:41.432Z,69.20
2019-04-22T21:31:14.841Z,69.40
2019-04-22T21:33:44.490Z,69.10
2019-04-22T21:36:19.943Z,69.10
2019-04-22T21:38:39.871Z,69.20
2019-04-22T21:41:08.409Z,68.80
2019-04-22T21:43:40.337Z,68.20
2019-04-22T21:46:09.121Z,69.20
2019-04-22T21:48:36.956Z,68.70
2019-04-22T21:51:08.608Z,69.20
2019-04-22T21:53:41.737Z,68.80
2019-04-22T21:56:23.896Z,68.90
2019-04-22T21:58:38.513Z,69.10
2019-04-22T22:01:21.801Z,68.70
2019-04-22T22:03:47.711Z,69.10
2019-04-22T22:06:07.260Z,69.20
2019-04-22T22:08:47.518Z,69.40
2019-04-22T22:11:13.362Z,69.60
2019-04-22T22:13:48.134Z,69.50
2019-04-22T22:16:10.075Z,69.50
2019-04-22T22:18:35.310Z,69.40
2019-04-22T22:21:26.863Z,69.30
2019-04-22T22:23:43.593Z,69.30
2019-04-22T22:26:08.559Z,69.70
2019-04-22T22:28:57.192Z,70.80
2019-04-22T22:31:17.322Z,70.30
2019-04-22T22:33:40.050Z,70.80
2019-04-22T22:36:05.148Z,70.70
2019-04-22T22:38:31.229Z,70.70
2019-04-22T22:40:45.849Z,71.00
2019-04-22T22:43:22.649Z,71.40
2019-04-22T22:45:53.800Z,71.60
2019-04-22T22:48:35.119Z,71.30
2019-04-22T22:51:02.079Z,71.50
2019-04-22T22:53:38.669Z,71.70
2019-04-22T22:55:57.706Z,72.00
2019-04-22T22:58:27.541Z,72.00
2019-04-22T23:00:53.557Z,73.20
2019-04-22T23:05:59.140Z,73.00
2019-04-22T23:08:42.099Z,73.00
2019-04-22T23:11:00.705Z,73.20
2019-04-22T23:13:28.187Z,73.50
2019-04-22T23:15:46.669Z,73.40
2019-04-22T23:18:03.715Z,73.10
2019-04-22T23:20:37.444Z,73.40
2019-04-22T23:23:23.058Z,73.90
2019-04-22T23:25:54.981Z,73.90
2019-04-22T23:28:30.047Z,74.00
2019-04-22T23:31:23.618Z,74.40
2019-04-22T23:34:01.185Z,74.70
2019-04-22T23:36:37.133Z,75.00
2019-04-22T23:39:15.835Z,75.10
2019-04-22T23:41:45.876Z,75.30
2019-04-22T23:44:13.862Z,75.40
2019-04-22T23:46:57.079Z,75.30
2019-04-22T23:49:25.035Z,75.50
2019-04-22T23:54:31.543Z,76.40
2019-04-22T23:56:56.354Z,76.70
2019-04-22T23:59:38.207Z,76.60
